createdAt,value
2022-08-05T00:01:20.930Z,1.33
2022-08-05T00:03:59.742Z,0.95
2022-08-05T00:06:35.801Z,0.93
2022-08-05T00:09:22.927Z,2.05
2022-08-05T00:12:13.098Z,1.27
2022-08-05T00:14:51.763Z,1.63
2022-08-05T00:17:38.671Z,1.75
2022-08-05T00:20:29.095Z,1.70
2022-08-05T00:23:12.864Z,1.45
2022-08-05T00:25:45.526Z,2.13
2022-08-05T00:28:36.637Z,2.25
2022-08-05T00:31:16.802Z,1.55
2022-08-05T00:34:55.195Z,1.70
2022-08-05T00:37:12.759Z,1.85
2022-08-05T00:39:58.089Z,2.20
2022-08-05T00:42:49.171Z,2.72
2022-08-05T00:45:38.823Z,1.38
2022-08-05T00:48:12.137Z,1.48
2022-08-05T00:50:59.362Z,1.42
2022-08-05T00:53:44.908Z,2.55
2022-08-05T00:56:22.727Z,1.95
2022-08-05T00:58:53.643Z,1.17
2022-08-05T01:01:42.968Z,1.35
2022-08-05T01:04:14.307Z,1.00
2022-08-05T01:06:48.530Z,1.02
2022-08-05T01:09:20.108Z,1.00
2022-08-05T01:11:53.268Z,0.77
2022-08-05T01:14:30.515Z,1.67
2022-08-05T01:17:05.967Z,1.10
2022-08-05T01:20:01.318Z,0.70
2022-08-05T01:22:46.852Z,1.23
2022-08-05T01:25:40.668Z,2.05
2022-08-05T01:28:37.562Z,1.30
2022-08-05T01:31:15.424Z,1.40
2022-08-05T01:33:49.364Z,1.05
2022-08-05T01:36:28.077Z,1.45
2022-08-05T01:39:00.912Z,1.98
2022-08-05T01:41:33.643Z,1.25
2022-08-05T01:44:09.837Z,1.10
2022-08-05T01:46:46.369Z,1.15
2022-08-05T01:49:26.433Z,1.30
2022-08-05T01:52:17.851Z,1.23
2022-08-05T01:54:52.750Z,1.25
2022-08-05T01:58:29.945Z,1.65
2022-08-05T02:00:18.719Z,1.00
2022-08-05T02:02:55.097Z,1.25
2022-08-05T02:05:28.645Z,1.17
2022-08-05T02:08:01.275Z,1.85
2022-08-05T02:10:37.978Z,1.77
2022-08-05T02:13:16.276Z,1.40
2022-08-05T02:15:50.774Z,1.23
2022-08-05T02:18:34.364Z,1.25
2022-08-05T02:21:15.210Z,1.35
2022-08-05T02:23:46.112Z,1.20
2022-08-05T02:26:17.281Z,1.75
2022-08-05T02:28:47.634Z,1.70
2022-08-05T02:31:24.428Z,1.17
2022-08-05T02:33:58.275Z,1.25
2022-08-05T02:36:31.379Z,1.00
2022-08-05T02:39:03.131Z,1.20
2022-08-05T02:41:43.394Z,1.08
2022-08-05T02:44:23.033Z,2.13
2022-08-05T02:47:00.519Z,1.00
2022-08-05T02:49:36.434Z,1.63
2022-08-05T02:52:09.093Z,1.00
2022-08-05T02:54:41.336Z,1.55
2022-08-05T02:59:50.501Z,1.15
2022-08-05T03:02:30.124Z,0.88
2022-08-05T03:07:48.526Z,0.80
2022-08-05T03:10:21.991Z,1.23
2022-08-05T03:12:54.495Z,1.08
2022-08-05T03:15:24.812Z,2.38
2022-08-05T03:17:55.591Z,1.10
2022-08-05T03:20:25.048Z,0.90
2022-08-05T03:22:57.216Z,1.23
2022-08-05T03:25:50.875Z,0.70
2022-08-05T03:28:19.848Z,1.55
2022-08-05T03:30:50.877Z,0.93
2022-08-05T03:33:19.808Z,1.50
2022-08-05T03:35:50.242Z,0.90
2022-08-05T03:38:32.733Z,1.15
2022-08-05T03:41:08.405Z,1.20
2022-08-05T03:44:09.663Z,1.20
2022-08-05T03:46:30.044Z,1.17
2022-08-05T03:52:37.936Z,0.88
2022-08-05T03:55:07.198Z,0.82
2022-08-05T03:57:28.934Z,1.50
2022-08-05T04:00:05.787Z,0.80
2022-08-05T04:02:52.068Z,0.82
2022-08-05T04:05:33.270Z,0.73
2022-08-05T04:08:05.738Z,0.63
2022-08-05T04:10:44.917Z,0.70
2022-08-05T04:13:13.721Z,1.83
2022-08-05T04:16:03.281Z,0.65
2022-08-05T04:18:34.257Z,1.08
2022-08-05T04:21:04.704Z,1.30
2022-08-05T04:24:05.695Z,1.58
2022-08-05T04:26:23.701Z,1.40
2022-08-05T04:28:52.254Z,0.50
2022-08-05T04:31:21.037Z,0.45
2022-08-05T04:34:19.201Z,0.60
2022-08-05T04:36:45.692Z,0.77
2022-08-05T04:39:17.981Z,0.50
2022-08-05T04:41:47.959Z,0.93
2022-08-05T04:44:21.354Z,0.73
2022-08-05T04:46:58.979Z,1.08
2022-08-05T04:49:38.709Z,0.70
2022-08-05T04:52:17.524Z,1.00
2022-08-05T04:54:46.978Z,4.53
2022-08-05T04:57:17.711Z,3.15
2022-08-05T04:59:47.978Z,0.95
2022-08-05T05:02:37.593Z,1.00
2022-08-05T05:05:16.573Z,1.13
2022-08-05T05:07:56.672Z,0.60
2022-08-05T05:10:29.866Z,1.35
2022-08-05T05:12:58.426Z,1.38
2022-08-05T05:15:56.914Z,0.38
2022-08-05T05:18:33.116Z,0.57
2022-08-05T05:21:05.445Z,1.23
2022-08-05T05:23:39.236Z,0.80
2022-08-05T05:26:28.541Z,0.90
2022-08-05T05:29:02.713Z,0.85
2022-08-05T05:31:42.864Z,0.77
2022-08-05T05:34:21.157Z,1.15
2022-08-05T05:36:53.684Z,0.65
2022-08-05T05:39:22.173Z,0.47
2022-08-05T05:41:54.339Z,1.38
2022-08-05T05:44:36.516Z,2.28
2022-08-05T05:47:13.110Z,1.00
2022-08-05T05:49:56.610Z,0.70
2022-08-05T05:52:34.576Z,1.42
2022-08-05T05:55:13.228Z,1.23
2022-08-05T05:57:52.773Z,0.68
2022-08-05T06:00:31.309Z,0.60
2022-08-05T06:02:59.655Z,0.40
2022-08-05T06:05:29.303Z,0.95
2022-08-05T06:08:02.087Z,7.00
2022-08-05T06:10:36.753Z,3.80
2022-08-05T06:13:19.599Z,0.80
2022-08-05T06:16:28.552Z,0.60
2022-08-05T06:18:39.339Z,0.65
2022-08-05T06:21:08.072Z,0.60
2022-08-05T06:23:50.459Z,0.57
2022-08-05T06:26:21.381Z,0.50
2022-08-05T06:28:54.277Z,0.50
2022-08-05T06:31:22.639Z,0.35
2022-08-05T06:34:07.675Z,0.45
2022-08-05T06:36:57.534Z,0.50
2022-08-05T06:39:28.041Z,0.50
2022-08-05T06:41:58.605Z,0.95
2022-08-05T06:44:28.066Z,0.70
2022-08-05T06:46:59.077Z,0.90
2022-08-05T06:50:00.325Z,0.60
2022-08-05T06:52:37.759Z,0.80
2022-08-05T06:55:09.015Z,1.20
2022-08-05T06:58:02.964Z,1.67
2022-08-05T07:00:25.986Z,0.73
2022-08-05T07:02:56.346Z,0.75
2022-08-05T07:05:31.817Z,0.60
2022-08-05T07:08:06.742Z,0.82
2022-08-05T07:10:52.719Z,0.65
2022-08-05T07:13:57.913Z,0.80
2022-08-05T07:17:58.406Z,1.02
2022-08-05T07:22:28.891Z,0.60
2022-08-05T07:25:22.995Z,0.43
2022-08-05T07:27:59.657Z,0.52
2022-08-05T07:30:33.758Z,0.70
2022-08-05T07:33:05.108Z,1.00
2022-08-05T07:36:04.909Z,1.00
2022-08-05T07:38:33.335Z,0.30
2022-08-05T07:42:08.920Z,0.52
2022-08-05T07:43:56.593Z,0.77
2022-08-05T07:46:26.621Z,1.23
2022-08-05T07:49:03.302Z,0.75
2022-08-05T07:51:40.758Z,0.90
2022-08-05T07:54:30.191Z,0.80
2022-08-05T08:00:33.990Z,0.73
2022-08-05T08:03:14.525Z,0.88
2022-08-05T08:05:49.383Z,0.95
2022-08-05T08:08:19.807Z,1.08
2022-08-05T08:10:49.226Z,1.17
2022-08-05T08:13:22.030Z,0.70
2022-08-05T08:16:35.167Z,1.02
2022-08-05T08:18:50.109Z,0.65
2022-08-05T08:21:18.741Z,1.42
2022-08-05T08:24:01.845Z,1.15
2022-08-05T08:26:32.664Z,1.33
2022-08-05T08:29:09.793Z,0.77
2022-08-05T08:31:52.081Z,0.75
2022-08-05T08:34:29.862Z,0.60
2022-08-05T08:37:04.635Z,0.50
2022-08-05T08:39:37.444Z,0.43
2022-08-05T08:42:17.194Z,1.20
2022-08-05T08:45:20.486Z,0.75
2022-08-05T08:48:11.404Z,0.70
2022-08-05T08:51:23.224Z,0.25
2022-08-05T08:53:29.454Z,0.70
2022-08-05T08:56:04.574Z,0.95
2022-08-05T08:58:43.332Z,0.57
2022-08-05T09:01:17.702Z,0.55
2022-08-05T09:03:54.218Z,0.47
2022-08-05T09:06:28.144Z,0.30
2022-08-05T09:08:59.152Z,0.52
2022-08-05T09:11:53.397Z,0.40
2022-08-05T09:14:56.508Z,0.68
2022-08-05T09:17:40.989Z,0.80
2022-08-05T09:20:02.782Z,0.63
2022-08-05T09:23:19.778Z,0.45
2022-08-05T09:26:01.239Z,0.40
2022-08-05T09:28:34.247Z,0.40
2022-08-05T09:31:18.321Z,0.57
2022-08-05T09:33:59.104Z,0.50
2022-08-05T09:36:54.621Z,0.75
2022-08-05T09:39:39.495Z,0.98
2022-08-05T09:42:20.183Z,0.57
2022-08-05T09:44:56.599Z,0.40
2022-08-05T09:47:49.046Z,0.47
2022-08-05T09:50:37.520Z,0.57
2022-08-05T09:53:14.189Z,0.90
2022-08-05T09:56:12.652Z,0.60
2022-08-05T09:58:42.040Z,1.00
2022-08-05T10:01:15.731Z,0.75
2022-08-05T10:04:03.174Z,0.70
2022-08-05T10:06:32.249Z,0.80
2022-08-05T10:09:24.988Z,1.02
2022-08-05T10:11:56.290Z,2.10
2022-08-05T10:14:30.220Z,0.80
2022-08-05T10:17:39.885Z,0.60
2022-08-05T10:20:09.677Z,0.55
2022-08-05T10:22:48.654Z,0.75
2022-08-05T10:25:21.054Z,0.90
2022-08-05T10:28:13.435Z,0.52
2022-08-05T10:31:20.842Z,0.82
2022-08-05T10:33:29.488Z,0.50
2022-08-05T10:36:04.852Z,0.60
2022-08-05T10:38:36.428Z,0.80
2022-08-05T10:41:12.603Z,0.63
2022-08-05T10:43:50.295Z,0.70
2022-08-05T10:46:24.006Z,0.80
2022-08-05T10:49:02.661Z,0.98
2022-08-05T10:51:58.338Z,0.70
2022-08-05T10:54:56.232Z,0.73
2022-08-05T10:57:31.888Z,0.50
2022-08-05T11:00:19.798Z,0.50
2022-08-05T11:03:24.893Z,0.63
2022-08-05T11:06:16.210Z,0.50
2022-08-05T11:09:32.124Z,0.50
2022-08-05T11:12:50.318Z,0.55
2022-08-05T11:15:58.999Z,0.77
2022-08-05T11:18:27.441Z,0.85
2022-08-05T11:20:59.054Z,0.50
2022-08-05T11:24:04.819Z,0.40
2022-08-05T11:26:32.824Z,0.57
2022-08-05T11:29:14.063Z,0.73
2022-08-05T11:31:57.453Z,0.55
2022-08-05T11:34:39.634Z,0.40
2022-08-05T11:38:27.929Z,0.70
2022-08-05T11:40:02.898Z,0.52
2022-08-05T11:42:37.830Z,0.85
2022-08-05T11:45:14.376Z,0.57
2022-08-05T11:47:55.297Z,0.77
2022-08-05T11:50:25.182Z,0.68
2022-08-05T11:52:57.555Z,0.60
2022-08-05T11:55:32.213Z,0.43
2022-08-05T11:58:10.116Z,0.60
2022-08-05T12:00:44.425Z,0.50
2022-08-05T12:03:28.586Z,0.50
2022-08-05T12:06:03.284Z,1.02
2022-08-05T12:08:40.948Z,0.70
2022-08-05T12:11:20.830Z,0.88
2022-08-05T12:13:55.797Z,0.43
2022-08-05T12:16:30.851Z,1.10
2022-08-05T12:18:59.650Z,1.17
2022-08-05T12:21:30.685Z,0.70
2022-08-05T12:24:04.959Z,0.73
2022-08-05T12:26:35.486Z,0.40
2022-08-05T12:29:16.437Z,0.77
2022-08-05T12:31:53.953Z,0.52
2022-08-05T12:34:28.409Z,0.40
2022-08-05T12:36:58.694Z,0.30
2022-08-05T12:39:37.460Z,0.52
2022-08-05T12:42:14.456Z,0.63
2022-08-05T12:44:44.593Z,0.50
2022-08-05T12:47:17.054Z,0.60
2022-08-05T12:52:42.244Z,0.50
2022-08-05T12:55:23.524Z,0.47
2022-08-05T12:58:49.054Z,0.50
2022-08-05T13:02:01.311Z,0.60
2022-08-05T13:04:28.820Z,0.60
2022-08-05T13:07:01.054Z,0.60
2022-08-05T13:09:31.242Z,0.60
2022-08-05T13:12:06.743Z,0.70
2022-08-05T13:14:42.687Z,0.47
2022-08-05T13:17:24.967Z,0.35
2022-08-05T13:20:06.235Z,0.90
2022-08-05T13:22:39.134Z,0.47
2022-08-05T13:25:19.231Z,0.70
2022-08-05T13:27:51.701Z,0.40
2022-08-05T13:30:33.618Z,0.75
2022-08-05T13:33:05.717Z,0.40
2022-08-05T13:35:47.352Z,0.63
2022-08-05T13:38:30.282Z,0.82
2022-08-05T13:41:03.380Z,0.53
2022-08-05T13:43:44.682Z,0.75
2022-08-05T13:46:30.678Z,0.63
2022-08-05T13:49:10.343Z,0.47
2022-08-05T13:51:45.807Z,0.50
2022-08-05T13:54:16.263Z,0.68
2022-08-05T13:56:51.602Z,0.50
2022-08-05T13:59:24.040Z,0.80
2022-08-05T14:01:56.805Z,0.47
2022-08-05T14:04:50.409Z,0.40
2022-08-05T14:07:25.792Z,0.95
2022-08-05T14:10:13.189Z,0.90
2022-08-05T14:12:42.799Z,0.50
2022-08-05T14:16:08.646Z,1.02
2022-08-05T14:18:03.895Z,0.47
2022-08-05T14:20:33.706Z,0.70
2022-08-05T14:23:01.876Z,0.75
2022-08-05T14:25:30.729Z,0.50
2022-08-05T14:27:59.171Z,0.68
2022-08-05T14:30:28.153Z,1.92
2022-08-05T14:32:59.436Z,0.77
2022-08-05T14:35:37.390Z,1.20
2022-08-05T14:38:32.405Z,0.77
2022-08-05T14:41:06.741Z,1.63
2022-08-05T14:43:57.647Z,1.15
2022-08-05T14:46:28.987Z,1.23
2022-08-05T14:51:30.827Z,1.55
2022-08-05T14:54:27.007Z,1.48
2022-08-05T14:56:51.119Z,1.58
2022-08-05T14:59:23.492Z,1.55
2022-08-05T15:01:53.831Z,2.20
2022-08-05T15:04:23.929Z,1.48
2022-08-05T15:06:55.556Z,1.70
2022-08-05T15:09:52.286Z,2.25
2022-08-05T15:12:16.809Z,1.75
2022-08-05T15:14:56.145Z,1.92
2022-08-05T15:17:47.373Z,1.50
2022-08-05T15:20:18.473Z,2.13
2022-08-05T15:22:52.131Z,1.95
2022-08-05T15:25:51.695Z,1.67
2022-08-05T15:28:14.768Z,2.47
2022-08-05T15:30:45.709Z,2.45
2022-08-05T15:33:56.403Z,1.85
2022-08-05T15:36:04.582Z,2.35
2022-08-05T15:38:40.906Z,1.98
2022-08-05T15:41:22.859Z,2.80
2022-08-05T15:43:54.924Z,2.67
2022-08-05T15:46:24.947Z,2.55
2022-08-05T15:48:58.598Z,2.67
2022-08-05T15:52:13.881Z,3.15
2022-08-05T15:54:34.891Z,2.55
2022-08-05T15:57:07.711Z,2.38
2022-08-05T15:59:36.473Z,3.30
2022-08-05T16:02:09.632Z,3.90
2022-08-05T16:04:44.003Z,2.92
2022-08-05T16:07:13.245Z,2.50
2022-08-05T16:09:42.210Z,2.45
2022-08-05T16:12:13.233Z,4.00
2022-08-05T16:14:43.418Z,3.55
2022-08-05T16:17:12.284Z,3.03
2022-08-05T16:20:04.738Z,3.03
2022-08-05T16:22:34.226Z,4.32
2022-08-05T16:27:59.607Z,2.55
2022-08-05T16:30:31.787Z,3.05
2022-08-05T16:33:02.939Z,3.15
2022-08-05T16:35:32.479Z,2.58
2022-08-05T16:38:24.421Z,2.63
2022-08-05T16:40:55.076Z,3.83
2022-08-05T16:43:31.245Z,2.47
2022-08-05T16:46:05.011Z,1.27
2022-08-05T16:48:39.081Z,1.20
2022-08-05T16:51:09.894Z,0.80
2022-08-05T16:54:03.224Z,0.70
2022-08-05T16:56:30.182Z,0.43
2022-08-05T16:59:00.949Z,0.75
2022-08-05T17:01:54.997Z,0.50
2022-08-05T17:04:27.815Z,0.60
2022-08-05T17:07:01.315Z,0.60
2022-08-05T17:09:57.736Z,1.05
2022-08-05T17:12:22.728Z,0.50
2022-08-05T17:15:15.499Z,1.85
2022-08-05T17:17:44.345Z,0.55
2022-08-05T17:20:14.909Z,0.40
2022-08-05T17:22:44.943Z,0.30
2022-08-05T17:25:22.235Z,0.52
2022-08-05T17:28:04.175Z,0.40
2022-08-05T17:30:34.099Z,0.30
2022-08-05T17:33:10.959Z,0.30
2022-08-05T17:36:07.854Z,0.60
2022-08-05T17:38:30.110Z,0.50
2022-08-05T17:41:00.580Z,0.52
2022-08-05T17:43:46.703Z,0.35
2022-08-05T17:46:20.551Z,0.20
2022-08-05T17:48:49.520Z,0.38
2022-08-05T17:51:21.757Z,0.17
2022-08-05T17:53:50.894Z,0.30
2022-08-05T17:56:23.339Z,0.25
2022-08-05T17:58:56.874Z,0.50
2022-08-05T18:02:38.309Z,0.40
2022-08-05T18:05:07.919Z,0.10
2022-08-05T18:07:41.641Z,0.67
2022-08-05T18:10:14.139Z,0.25
2022-08-05T18:12:50.025Z,0.25
2022-08-05T18:15:18.003Z,0.20
2022-08-05T18:18:01.310Z,0.20
2022-08-05T18:20:32.719Z,0.63
2022-08-05T18:23:12.285Z,0.20
2022-08-05T18:25:45.780Z,0.43
2022-08-05T18:28:16.208Z,0.10
2022-08-05T18:30:45.772Z,0.22
2022-08-05T18:33:22.680Z,0.10
2022-08-05T18:36:03.604Z,0.20
2022-08-05T18:38:36.097Z,0.30
2022-08-05T18:41:55.217Z,0.38
2022-08-05T18:43:54.713Z,0.20
2022-08-05T18:46:28.973Z,0.20
2022-08-05T18:49:19.426Z,0.50
2022-08-05T18:52:10.766Z,0.40
2022-08-05T18:54:46.120Z,0.20
2022-08-05T18:57:15.226Z,0.30
2022-08-05T19:00:02.966Z,0.28
2022-08-05T19:02:32.588Z,0.40
2022-08-05T19:06:06.337Z,0.25
2022-08-05T19:07:56.185Z,0.10
2022-08-05T19:10:28.443Z,0.17
2022-08-05T19:12:57.140Z,0.30
2022-08-05T19:15:56.698Z,0.22
2022-08-05T19:18:22.033Z,0.30
2022-08-05T19:20:53.255Z,0.40
2022-08-05T19:24:04.561Z,0.38
2022-08-05T19:26:11.848Z,0.30
2022-08-05T19:28:42.211Z,0.47
2022-08-05T19:31:13.410Z,0.20
2022-08-05T19:33:48.285Z,0.10
2022-08-05T19:36:26.534Z,0.17
2022-08-05T19:39:00.950Z,0.50
2022-08-05T19:41:58.323Z,0.30
2022-08-05T19:44:19.638Z,0.63
2022-08-05T19:46:50.091Z,0.30
2022-08-05T19:49:18.987Z,0.40
2022-08-05T19:52:09.395Z,0.40
2022-08-05T19:54:39.922Z,0.38
2022-08-05T19:57:10.516Z,0.80
2022-08-05T19:59:55.916Z,0.40
2022-08-05T20:02:32.164Z,0.35
2022-08-05T20:05:00.629Z,0.38
2022-08-05T20:07:45.856Z,0.40
2022-08-05T20:10:19.200Z,0.50
2022-08-05T20:12:50.561Z,0.50
2022-08-05T20:15:23.275Z,0.70
2022-08-05T20:18:33.206Z,0.70
2022-08-05T20:21:04.659Z,0.38
2022-08-05T20:23:39.358Z,0.65
2022-08-05T20:26:19.328Z,0.60
2022-08-05T20:28:48.537Z,0.50
2022-08-05T20:31:17.629Z,0.45
2022-08-05T20:36:21.558Z,3.95
2022-08-05T20:38:54.621Z,0.70
2022-08-05T20:41:44.439Z,0.80
2022-08-05T20:44:19.175Z,0.55
2022-08-05T20:47:07.372Z,0.50
2022-08-05T20:49:39.327Z,0.43
2022-08-05T20:52:08.456Z,0.50
2022-08-05T20:54:55.218Z,0.57
2022-08-05T20:57:44.021Z,0.60
2022-08-05T21:00:41.203Z,0.28
2022-08-05T21:03:06.277Z,0.60
2022-08-05T21:05:47.713Z,0.40
2022-08-05T21:08:33.173Z,0.43
2022-08-05T21:11:12.735Z,0.32
2022-08-05T21:13:56.252Z,0.65
2022-08-05T21:16:29.764Z,0.38
2022-08-05T21:19:00.384Z,0.40
2022-08-05T21:21:39.654Z,0.30
2022-08-05T21:24:15.700Z,0.38
2022-08-05T21:26:58.055Z,0.30
2022-08-05T21:29:32.243Z,0.50
2022-08-05T21:32:01.759Z,0.30
2022-08-05T21:34:31.728Z,0.50
2022-08-05T21:37:01.786Z,0.52
2022-08-05T21:39:31.048Z,0.40
2022-08-05T21:42:04.563Z,0.30
2022-08-05T21:44:33.458Z,0.43
2022-08-05T21:47:01.645Z,0.50
2022-08-05T21:49:59.272Z,0.68
2022-08-05T21:52:27.749Z,0.40
2022-08-05T21:55:06.893Z,0.20
2022-08-05T21:57:42.626Z,0.20
2022-08-05T22:00:13.050Z,0.20
2022-08-05T22:02:44.330Z,0.30
2022-08-05T22:05:16.165Z,0.73
2022-08-05T22:07:58.218Z,0.40
2022-08-05T22:10:28.375Z,0.30
2022-08-05T22:13:08.758Z,0.50
2022-08-05T22:16:01.098Z,0.35
2022-08-05T22:18:25.992Z,0.57
2022-08-05T22:20:54.290Z,0.50
2022-08-05T22:24:03.171Z,0.45
2022-08-05T22:26:50.511Z,0.57
2022-08-05T22:29:26.133Z,0.30
2022-08-05T22:32:02.589Z,0.52
2022-08-05T22:34:34.458Z,0.52
2022-08-05T22:37:04.899Z,0.50
2022-08-05T22:39:34.467Z,0.52
2022-08-05T22:42:10.274Z,0.37
2022-08-05T22:44:47.084Z,0.60
2022-08-05T22:47:28.937Z,1.17
2022-08-05T22:50:20.226Z,0.95
2022-08-05T22:52:49.239Z,0.32
2022-08-05T22:55:21.197Z,0.30
2022-08-05T22:57:51.262Z,1.00
2022-08-05T23:03:58.114Z,0.47
2022-08-05T23:06:26.652Z,0.63
2022-08-05T23:08:57.085Z,0.30
2022-08-05T23:11:49.198Z,0.55
2022-08-05T23:14:22.583Z,0.60
2022-08-05T23:17:23.911Z,0.73
2022-08-05T23:19:56.122Z,0.30
2022-08-05T23:22:27.467Z,0.50
2022-08-05T23:24:56.301Z,0.50
2022-08-05T23:27:28.801Z,0.70
2022-08-05T23:30:00.850Z,0.63
2022-08-05T23:32:31.032Z,0.30
2022-08-05T23:35:03.034Z,0.57
2022-08-05T23:37:36.589Z,0.60
2022-08-05T23:40:09.536Z,0.60
2022-08-05T23:42:39.757Z,0.63
2022-08-05T23:45:14.101Z,0.63
2022-08-05T23:47:48.137Z,0.50
2022-08-05T23:50:20.222Z,0.40
2022-08-05T23:52:51.565Z,0.30
2022-08-05T23:55:22.202Z,0.55
2022-08-05T23:57:53.021Z,0.57
